Time;durP1;ratioP1;P1;durP2;ratioP2;P2;SDS_P1;SDS_P2;PMS_P1;PMS_P2;Temp;Humidity;BMP_temperature;BMP_pressure;BME280_temperature;BME280_humidity;BME280_pressure;Samples;Min_cycle;Max_cycle;Signal;HPM_P1;HPM_P2
2022/01/24 00:00:13;;;;;;;;;37.25;24.75;;;;;;;;5090622;28;11665;-71
2022/01/24 00:02:40;;;;;;;;;32.50;26.25;;;;;;;;5086602;28;8812;-71
2022/01/24 00:05:06;;;;;;;;;39.25;25.00;;;;;;;;5082639;28;8832;-71
2022/01/24 00:07:32;;;;;;;;;35.50;25.75;;;;;;;;5086134;28;8844;-71
2022/01/24 00:10:03;;;;;;;;;34.75;29.50;;;;;;;;5089910;28;8750;-71
2022/01/24 00:17:50;;;;;;;;;34.25;26.25;;;;;;;;5089418;28;8786;-71
2022/01/24 00:28:28;;;;;;;;;112.25;94.50;;;;;;;;5083752;28;8798;-71
2022/01/24 00:30:53;;;;;;;;;112.00;98.25;;;;;;;;5091549;28;8816;-71
2022/01/24 00:33:19;;;;;;;;;109.25;95.00;;;;;;;;5090055;28;8856;-71
2022/01/24 00:35:45;;;;;;;;;108.75;92.50;;;;;;;;5080629;28;8830;-71
2022/01/24 00:38:10;;;;;;;;;103.25;85.75;;;;;;;;5090524;28;8813;-71
2022/01/24 00:40:39;;;;;;;;;113.25;103.00;;;;;;;;5090830;28;8870;-71
2022/01/24 00:43:16;;;;;;;;;128.80;116.80;;;;;;;;5084366;28;8820;-71
2022/01/24 00:46:04;;;;;;;;;146.00;140.80;;;;;;;;5093405;28;8906;-71
2022/01/24 00:54:42;;;;;;;;;180.80;176.60;;;;;;;;5092637;28;8802;-71
2022/01/24 00:56:49;;;;;;;;;192.00;183.20;;;;;;;;5082487;28;8827;-71
2022/01/24 00:59:15;;;;;;;;;154.80;147.40;;;;;;;;5079668;28;8906;-71
2022/01/24 01:01:40;;;;;;;;;157.25;147.75;;;;;;;;5091534;28;8814;-71
2022/01/24 01:04:05;;;;;;;;;154.00;150.00;;;;;;;;5081395;28;8824;-71
2022/01/24 01:06:30;;;;;;;;;175.25;166.25;;;;;;;;5085929;28;8828;-71
2022/01/24 01:20:09;;;;;;;;;155.25;150.25;;;;;;;;5071341;28;8840;-71
2022/01/24 01:22:34;;;;;;;;;168.00;166.00;;;;;;;;5085178;28;8810;-71
2022/01/24 01:25:00;;;;;;;;;185.25;177.00;;;;;;;;5090898;28;8861;-71
2022/01/24 01:27:36;;;;;;;;;312.50;308.00;;;;;;;;5085427;28;8861;-71
2022/01/24 01:30:08;;;;;;;;;283.50;278.25;;;;;;;;5089838;28;9700;-71
2022/01/24 01:56:23;;;;;;;;;260.50;252.33;;;;;;;;5095694;28;9664;-71
2022/01/24 01:58:48;;;;;;;;;255.25;251.25;;;;;;;;5092655;28;8809;-71
2022/01/24 02:01:14;;;;;;;;;206.25;200.75;;;;;;;;5087545;28;8908;-71
2022/01/24 02:03:40;;;;;;;;;289.40;286.80;;;;;;;;5093640;28;8879;-71
2022/01/24 02:06:05;;;;;;;;;245.00;237.60;;;;;;;;5093705;28;8817;-71
2022/01/24 02:08:32;;;;;;;;;219.25;215.50;;;;;;;;5088855;28;8851;-71
2022/01/24 02:10:58;;;;;;;;;273.20;263.60;;;;;;;;5086478;28;8815;-71
2022/01/24 02:13:25;;;;;;;;;207.25;203.25;;;;;;;;5090000;28;8788;-71
2022/01/24 02:16:02;;;;;;;;;250.17;241.83;;;;;;;;5092684;28;8813;-71
2022/01/24 02:21:27;;;;;;;;;238.33;236.67;;;;;;;;5087316;28;8847;-71
2022/01/24 02:23:46;;;;;;;;;204.20;201.60;;;;;;;;5089276;28;10149;-71
2022/01/24 02:26:16;;;;;;;;;222.00;213.50;;;;;;;;5091522;28;8805;-71
2022/01/24 02:33:45;;;;;;;;;156.00;151.67;;;;;;;;5087738;28;8996;-71
2022/01/24 02:36:10;;;;;;;;;153.20;150.80;;;;;;;;5092032;28;9735;-71
2022/01/24 02:38:55;;;;;;;;;165.25;154.50;;;;;;;;5092246;28;8954;-71
2022/01/24 02:49:32;;;;;;;;;132.80;126.00;;;;;;;;5085177;28;8908;-71
2022/01/24 02:52:26;;;;;;;;;152.75;146.75;;;;;;;;5084916;28;8890;-71
2022/01/24 02:54:51;;;;;;;;;135.80;130.80;;;;;;;;5093215;28;9632;-71
2022/01/24 02:57:17;;;;;;;;;137.75;127.00;;;;;;;;5089284;28;8911;-71
2022/01/24 02:59:42;;;;;;;;;146.75;140.25;;;;;;;;5081434;28;8954;-71
2022/01/24 03:02:08;;;;;;;;;131.00;122.00;;;;;;;;5095103;28;8837;-71
2022/01/24 03:04:34;;;;;;;;;132.00;124.50;;;;;;;;5081397;28;8837;-71
2022/01/24 03:06:59;;;;;;;;;146.00;136.00;;;;;;;;5092247;28;9137;-71
2022/01/24 03:09:24;;;;;;;;;150.00;144.33;;;;;;;;5085374;28;8972;-71
2022/01/24 03:12:00;;;;;;;;;138.67;135.67;;;;;;;;5094099;28;8797;-71
2022/01/24 03:14:27;;;;;;;;;120.00;119.60;;;;;;;;5092828;28;9722;-71
2022/01/24 03:16:53;;;;;;;;;169.25;161.75;;;;;;;;5092361;28;8839;-71
2022/01/24 03:19:18;;;;;;;;;121.80;119.00;;;;;;;;5084575;28;8848;-71
2022/01/24 03:21:44;;;;;;;;;135.75;129.25;;;;;;;;5091248;28;8880;-71
2022/01/24 03:24:09;;;;;;;;;125.50;117.00;;;;;;;;5089435;28;8865;-71
2022/01/24 03:26:35;;;;;;;;;154.50;150.75;;;;;;;;5084261;28;11610;-71
2022/01/24 03:29:00;;;;;;;;;122.75;117.00;;;;;;;;5087537;28;8810;-71
2022/01/24 03:31:26;;;;;;;;;120.25;106.50;;;;;;;;5082532;28;11777;-71
2022/01/24 03:33:51;;;;;;;;;106.50;88.25;;;;;;;;5093078;28;8848;-71
2022/01/24 03:36:16;;;;;;;;;108.75;91.50;;;;;;;;5079499;28;8909;-71
2022/01/24 03:38:41;;;;;;;;;103.33;90.33;;;;;;;;5085739;28;8836;-71
2022/01/24 03:41:07;;;;;;;;;93.75;73.25;;;;;;;;5092785;28;8879;-71
2022/01/24 03:43:32;;;;;;;;;101.33;82.33;;;;;;;;5082883;28;8857;-71
2022/01/24 03:48:45;;;;;;;;;77.60;63.00;;;;;;;;5076462;28;8780;-71
2022/01/24 03:51:11;;;;;;;;;80.60;60.20;;;;;;;;5079810;28;8828;-71
2022/01/24 03:53:36;;;;;;;;;84.00;67.00;;;;;;;;5080726;28;9786;-71
2022/01/24 03:56:03;;;;;;;;;82.50;71.50;;;;;;;;5094274;28;8849;-71
2022/01/24 03:58:28;;;;;;;;;78.80;62.60;;;;;;;;5082384;28;8969;-71
2022/01/24 04:00:55;;;;;;;;;66.00;52.00;;;;;;;;5092110;28;8900;-71
2022/01/24 04:03:20;;;;;;;;;54.50;41.50;;;;;;;;5089065;28;8769;-71
2022/01/24 04:05:46;;;;;;;;;43.00;35.00;;;;;;;;5082530;28;8820;-71
2022/01/24 04:08:11;;;;;;;;;42.75;32.75;;;;;;;;5093136;28;8833;-71
2022/01/24 04:10:45;;;;;;;;;35.33;31.00;;;;;;;;5089174;28;8805;-71
2022/01/24 04:23:41;;;;;;;;;75.00;59.75;;;;;;;;5091656;28;8801;-71
2022/01/24 04:26:07;;;;;;;;;79.75;65.00;;;;;;;;5088749;28;8813;-71
2022/01/24 04:28:32;;;;;;;;;82.33;65.67;;;;;;;;5091431;28;8838;-71
2022/01/24 04:30:57;;;;;;;;;74.67;60.00;;;;;;;;5093401;28;9041;-71
2022/01/24 04:33:23;;;;;;;;;75.67;62.33;;;;;;;;5091089;28;8833;-71
2022/01/24 04:35:48;;;;;;;;;68.00;52.00;;;;;;;;5091767;28;8897;-71
2022/01/24 04:38:13;;;;;;;;;73.67;58.33;;;;;;;;5092398;28;9566;-71
2022/01/24 04:40:40;;;;;;;;;80.67;62.33;;;;;;;;5079565;28;10997;-71
2022/01/24 04:43:28;;;;;;;;;90.25;69.50;;;;;;;;5075291;28;8844;-71
2022/01/24 04:46:08;;;;;;;;;91.25;70.25;;;;;;;;5075691;28;8832;-71
2022/01/24 04:56:38;;;;;;;;;91.00;71.00;;;;;;;;5083811;28;8870;-71
2022/01/24 04:59:04;;;;;;;;;94.25;75.50;;;;;;;;5091137;28;9744;-71
2022/01/24 05:01:29;;;;;;;;;89.00;69.25;;;;;;;;5093548;28;8840;-71
2022/01/24 05:03:55;;;;;;;;;82.75;65.75;;;;;;;;5081760;28;8827;-71
2022/01/24 05:06:20;;;;;;;;;85.67;69.33;;;;;;;;5082298;28;8808;-71
2022/01/24 05:08:45;;;;;;;;;81.00;62.67;;;;;;;;5083312;28;9567;-71
2022/01/24 05:11:16;;;;;;;;;94.75;73.00;;;;;;;;5096008;28;9042;-71
2022/01/24 05:24:29;;;;;;;;;88.00;68.50;;;;;;;;5086523;28;8794;-71
2022/01/24 05:26:54;;;;;;;;;102.50;78.50;;;;;;;;5093982;28;8817;-71
2022/01/24 05:29:20;;;;;;;;;92.50;71.75;;;;;;;;5096560;28;8794;-70
2022/01/24 05:31:45;;;;;;;;;98.00;76.50;;;;;;;;5081226;28;9588;-70
2022/01/24 05:34:10;;;;;;;;;91.50;73.25;;;;;;;;5096839;28;9577;-70
2022/01/24 05:36:36;;;;;;;;;98.25;79.00;;;;;;;;5093455;28;8834;-71
2022/01/24 05:39:01;;;;;;;;;95.75;75.25;;;;;;;;5095423;28;8814;-70
2022/01/24 05:41:27;;;;;;;;;87.75;69.00;;;;;;;;5096265;28;8898;-71
2022/01/24 05:43:52;;;;;;;;;96.00;76.50;;;;;;;;5087612;28;8829;-71
2022/01/24 05:46:17;;;;;;;;;90.50;70.00;;;;;;;;5088624;28;8904;-71
2022/01/24 05:48:43;;;;;;;;;91.67;72.00;;;;;;;;5094770;28;8926;-71
2022/01/24 05:51:08;;;;;;;;;83.00;65.50;;;;;;;;5086862;28;10350;-70
2022/01/24 05:53:33;;;;;;;;;90.33;71.67;;;;;;;;5090345;28;8817;-71
2022/01/24 05:55:59;;;;;;;;;93.00;73.50;;;;;;;;5092514;28;8969;-70
2022/01/24 05:58:24;;;;;;;;;94.50;74.75;;;;;;;;5094642;28;8852;-70
2022/01/24 06:00:50;;;;;;;;;81.75;63.00;;;;;;;;5089043;28;8797;-71
2022/01/24 06:03:15;;;;;;;;;105.75;83.00;;;;;;;;5088353;28;9393;-70
2022/01/24 06:05:40;;;;;;;;;92.50;74.25;;;;;;;;5089134;28;8824;-71
2022/01/24 06:08:06;;;;;;;;;108.33;82.33;;;;;;;;5092952;28;8956;-71
2022/01/24 06:10:31;;;;;;;;;102.67;83.33;;;;;;;;5081708;28;11727;-71
2022/01/24 06:12:57;;;;;;;;;100.00;74.75;;;;;;;;5087263;28;11554;-71
2022/01/24 06:15:22;;;;;;;;;102.50;86.00;;;;;;;;5090739;28;8856;-70
2022/01/24 06:17:47;;;;;;;;;91.00;72.50;;;;;;;;5094861;28;8814;-71
2022/01/24 06:20:13;;;;;;;;;79.50;62.75;;;;;;;;5090200;28;8833;-70
2022/01/24 06:22:41;;;;;;;;;91.25;74.50;;;;;;;;5087747;28;8841;-70
2022/01/24 06:25:07;;;;;;;;;95.75;74.75;;;;;;;;5094983;28;8809;-70
2022/01/24 06:27:32;;;;;;;;;99.75;76.50;;;;;;;;5094955;28;8986;-71
2022/01/24 06:29:57;;;;;;;;;92.25;72.50;;;;;;;;5092436;28;8814;-71
2022/01/24 06:32:23;;;;;;;;;93.33;73.00;;;;;;;;5091885;28;8810;-71
2022/01/24 06:34:48;;;;;;;;;91.25;72.50;;;;;;;;5093335;28;11621;-71
2022/01/24 06:37:13;;;;;;;;;104.00;76.00;;;;;;;;5084391;28;8866;-69
2022/01/24 06:39:39;;;;;;;;;86.50;69.50;;;;;;;;5095852;28;8825;-71
2022/01/24 06:42:21;;;;;;;;;101.67;81.00;;;;;;;;5092745;28;9526;-67
2022/01/24 06:44:47;;;;;;;;;94.50;74.25;;;;;;;;5090465;28;8835;-71
2022/01/24 06:47:12;;;;;;;;;100.75;78.75;;;;;;;;5092887;28;8846;-71
2022/01/24 06:49:37;;;;;;;;;100.00;79.00;;;;;;;;5095777;28;8882;-71
2022/01/24 06:52:06;;;;;;;;;95.33;72.67;;;;;;;;5090703;28;8868;-71
2022/01/24 06:54:31;;;;;;;;;111.00;90.00;;;;;;;;5091041;28;8808;-71
2022/01/24 06:56:57;;;;;;;;;102.33;81.33;;;;;;;;5087509;28;8819;-71
2022/01/24 06:59:22;;;;;;;;;104.00;83.33;;;;;;;;5095215;28;11088;-71
2022/01/24 07:01:48;;;;;;;;;100.00;81.50;;;;;;;;5086956;28;8840;-71
2022/01/24 07:04:13;;;;;;;;;89.25;72.25;;;;;;;;5089514;28;8849;-71
2022/01/24 07:06:38;;;;;;;;;110.75;94.50;;;;;;;;5094305;28;8806;-70
2022/01/24 07:09:04;;;;;;;;;103.00;78.67;;;;;;;;5094983;28;8813;-71
2022/01/24 07:11:29;;;;;;;;;101.75;83.25;;;;;;;;5094264;28;8806;-72
2022/01/24 07:13:54;;;;;;;;;109.50;95.00;;;;;;;;5084806;28;8894;-70
2022/01/24 07:16:20;;;;;;;;;110.00;92.00;;;;;;;;5078477;28;9695;-70
2022/01/24 07:18:58;;;;;;;;;100.75;81.50;;;;;;;;5090891;28;8824;-70
2022/01/24 07:21:23;;;;;;;;;105.25;87.25;;;;;;;;5092598;28;8817;-70
2022/01/24 07:23:49;;;;;;;;;97.50;78.75;;;;;;;;5095123;28;8884;-70
2022/01/24 07:26:14;;;;;;;;;108.75;92.00;;;;;;;;5084686;28;8851;-70
2022/01/24 07:28:40;;;;;;;;;114.75;95.25;;;;;;;;5095573;28;8871;-70
2022/01/24 07:31:05;;;;;;;;;107.00;96.00;;;;;;;;5091882;28;9362;-70
2022/01/24 07:33:30;;;;;;;;;107.00;89.00;;;;;;;;5081584;28;8814;-70
2022/01/24 07:35:56;;;;;;;;;106.25;89.00;;;;;;;;5093821;28;8814;-70
2022/01/24 07:38:21;;;;;;;;;111.75;100.75;;;;;;;;5080207;28;8829;-70
2022/01/24 07:40:49;;;;;;;;;104.33;84.00;;;;;;;;5094665;28;8810;-70
2022/01/24 07:43:15;;;;;;;;;114.00;97.00;;;;;;;;5082903;28;10557;-70
2022/01/24 07:45:41;;;;;;;;;106.00;85.50;;;;;;;;5076220;28;8825;-70
2022/01/24 07:48:07;;;;;;;;;104.25;87.50;;;;;;;;5081270;28;8782;-70
2022/01/24 07:50:35;;;;;;;;;110.67;98.00;;;;;;;;5089928;28;8824;-70
2022/01/24 07:53:01;;;;;;;;;109.25;95.00;;;;;;;;5086066;28;8786;-70
2022/01/24 07:55:26;;;;;;;;;107.75;85.50;;;;;;;;5091787;28;8877;-71
2022/01/24 07:57:52;;;;;;;;;112.50;100.00;;;;;;;;5079531;28;8813;-71
2022/01/24 08:00:17;;;;;;;;;101.25;82.25;;;;;;;;5090794;28;8936;-71
2022/01/24 08:02:42;;;;;;;;;108.75;86.25;;;;;;;;5084143;28;8852;-71
2022/01/24 08:05:08;;;;;;;;;110.00;93.00;;;;;;;;5079424;28;8813;-72
2022/01/24 08:07:34;;;;;;;;;106.25;91.00;;;;;;;;5093322;28;8790;-71
2022/01/24 08:10:00;;;;;;;;;95.75;74.75;;;;;;;;5092499;28;8813;-70
2022/01/24 08:12:25;;;;;;;;;107.75;83.00;;;;;;;;5087862;28;8848;-71
2022/01/24 08:14:51;;;;;;;;;100.50;81.50;;;;;;;;5079861;28;8916;-70
2022/01/24 08:17:16;;;;;;;;;101.67;81.33;;;;;;;;5090994;28;8837;-72
2022/01/24 08:19:41;;;;;;;;;98.50;77.00;;;;;;;;5085725;28;9670;-71
2022/01/24 08:22:07;;;;;;;;;100.50;77.75;;;;;;;;5093492;28;8798;-71
2022/01/24 08:24:32;;;;;;;;;104.75;83.50;;;;;;;;5093436;28;8841;-71
2022/01/24 08:26:58;;;;;;;;;90.33;70.00;;;;;;;;5093763;28;8825;-71
2022/01/24 08:29:23;;;;;;;;;91.33;72.67;;;;;;;;5094365;28;8817;-72
2022/01/24 08:31:48;;;;;;;;;95.00;75.33;;;;;;;;5092544;28;8862;-71
2022/01/24 08:34:13;;;;;;;;;89.33;68.00;;;;;;;;5094391;28;8856;-71
2022/01/24 08:36:39;;;;;;;;;94.25;74.00;;;;;;;;5091687;28;11057;-71
2022/01/24 08:39:07;;;;;;;;;92.00;72.50;;;;;;;;5092761;28;9725;-71
2022/01/24 08:41:57;;;;;;;;;87.75;69.25;;;;;;;;5093788;28;8780;-71
2022/01/24 08:47:04;;;;;;;;;100.50;76.50;;;;;;;;5096390;28;8826;-71
2022/01/24 08:49:29;;;;;;;;;89.00;70.00;;;;;;;;5096020;28;8829;-71
2022/01/24 08:51:54;;;;;;;;;84.00;65.75;;;;;;;;5097466;28;9605;-72
2022/01/24 08:54:19;;;;;;;;;93.67;73.33;;;;;;;;5096089;28;8921;-71
2022/01/24 08:56:46;;;;;;;;;79.67;62.67;;;;;;;;5095009;28;8883;-71
2022/01/24 08:59:11;;;;;;;;;81.75;62.75;;;;;;;;5095925;28;10169;-71
2022/01/24 09:01:37;;;;;;;;;57.00;47.33;;;;;;;;5096994;28;8798;-71
2022/01/24 09:04:02;;;;;;;;;57.50;46.00;;;;;;;;5095975;28;8918;-71
2022/01/24 09:06:29;;;;;;;;;66.33;52.00;;;;;;;;5095334;28;8853;-71
2022/01/24 09:09:03;;;;;;;;;83.25;65.75;;;;;;;;5093459;28;8858;-71
2022/01/24 09:11:30;;;;;;;;;80.75;61.25;;;;;;;;5096610;28;9645;-71
2022/01/24 09:13:55;;;;;;;;;86.00;68.50;;;;;;;;5096860;28;8895;-71
2022/01/24 09:16:21;;;;;;;;;93.25;74.75;;;;;;;;5096388;28;8801;-71
2022/01/24 09:18:46;;;;;;;;;96.33;75.67;;;;;;;;5087385;28;8858;-71
2022/01/24 09:21:11;;;;;;;;;89.00;70.67;;;;;;;;5094005;28;11766;-71
2022/01/24 09:23:37;;;;;;;;;91.33;73.00;;;;;;;;5093336;28;8825;-71
2022/01/24 09:26:03;;;;;;;;;93.50;73.00;;;;;;;;5095725;28;8856;-71
2022/01/24 09:28:28;;;;;;;;;98.00;78.00;;;;;;;;5096606;28;8814;-71
2022/01/24 09:30:54;;;;;;;;;109.20;94.00;;;;;;;;5095041;28;8968;-71
2022/01/24 09:33:19;;;;;;;;;125.60;118.20;;;;;;;;5096375;28;8806;-71
2022/01/24 09:35:45;;;;;;;;;194.50;183.33;;;;;;;;5095578;28;8922;-71
2022/01/24 09:38:11;;;;;;;;;260.29;248.43;;;;;;;;5096021;28;8863;-71
2022/01/24 09:40:36;;;;;;;;;328.00;318.14;;;;;;;;5088280;28;8796;-71
2022/01/24 09:43:02;;;;;;;;;390.67;387.17;;;;;;;;5088330;28;8864;-71
2022/01/24 09:45:27;;;;;;;;;520.29;516.14;;;;;;;;5094747;28;8808;-71
2022/01/24 09:47:55;;;;;;;;;547.83;539.67;;;;;;;;5093117;28;8825;-71
2022/01/24 09:50:21;;;;;;;;;547.43;542.14;;;;;;;;5095143;28;8760;-71
2022/01/24 09:52:47;;;;;;;;;540.20;530.20;;;;;;;;5095855;28;9621;-71
2022/01/24 09:55:13;;;;;;;;;435.00;432.83;;;;;;;;5094706;28;9662;-71
2022/01/24 09:57:41;;;;;;;;;456.80;452.00;;;;;;;;5093698;28;8786;-71
2022/01/24 10:00:08;;;;;;;;;324.75;321.00;;;;;;;;5097775;28;8763;-71
2022/01/24 10:02:33;;;;;;;;;263.00;257.75;;;;;;;;5095498;28;8832;-71
2022/01/24 10:05:13;;;;;;;;;227.00;223.00;;;;;;;;5095666;28;8805;-71
2022/01/24 10:07:39;;;;;;;;;144.60;127.40;;;;;;;;5089757;28;8782;-71
2022/01/24 10:10:04;;;;;;;;;99.50;84.75;;;;;;;;5094513;28;8786;-71
2022/01/24 10:17:42;;;;;;;;;39.75;26.75;;;;;;;;5087355;28;8742;-71
2022/01/24 10:20:26;;;;;;;;;31.00;20.50;;;;;;;;5092799;28;8809;-71
2022/01/24 10:23:10;;;;;;;;;36.50;26.00;;;;;;;;5094319;28;8815;-71
2022/01/24 10:25:49;;;;;;;;;57.75;44.50;;;;;;;;5090572;28;9034;-71
2022/01/24 10:28:26;;;;;;;;;71.00;54.00;;;;;;;;5092593;28;9793;-71
2022/01/24 10:31:01;;;;;;;;;76.67;60.00;;;;;;;;5082980;28;8806;-71
2022/01/24 10:33:26;;;;;;;;;86.50;68.00;;;;;;;;5094250;28;8822;-71
2022/01/24 10:35:51;;;;;;;;;92.33;71.33;;;;;;;;5095389;28;8856;-71
2022/01/24 10:41:16;;;;;;;;;72.50;54.75;;;;;;;;5083256;28;8927;-71
2022/01/24 10:43:42;;;;;;;;;66.75;50.50;;;;;;;;5086178;28;9751;-71
2022/01/24 10:46:08;;;;;;;;;86.33;66.67;;;;;;;;5095281;28;8793;-71
2022/01/24 10:48:35;;;;;;;;;86.50;68.75;;;;;;;;5095375;28;11550;-71
2022/01/24 10:51:06;;;;;;;;;91.50;70.25;;;;;;;;5095258;28;8778;-71
2022/01/24 10:53:36;;;;;;;;;81.25;65.50;;;;;;;;5095497;28;9830;-71
2022/01/24 10:56:02;;;;;;;;;84.00;67.25;;;;;;;;5082298;28;8895;-71
2022/01/24 10:58:33;;;;;;;;;87.25;68.25;;;;;;;;5094957;28;8813;-71
2022/01/24 11:00:58;;;;;;;;;84.80;65.60;;;;;;;;5095224;28;8767;-71
2022/01/24 11:03:24;;;;;;;;;88.33;69.67;;;;;;;;5094701;28;9539;-71
2022/01/24 11:05:49;;;;;;;;;98.80;84.80;;;;;;;;5094840;28;8810;-71
2022/01/24 11:08:16;;;;;;;;;96.75;78.00;;;;;;;;5095271;28;9664;-71
2022/01/24 11:10:43;;;;;;;;;94.75;75.00;;;;;;;;5073350;28;8772;-71
2022/01/24 11:13:09;;;;;;;;;98.75;80.00;;;;;;;;5083484;28;8856;-71
2022/01/24 11:15:38;;;;;;;;;98.00;78.67;;;;;;;;5095020;28;8817;-71
2022/01/24 11:18:03;;;;;;;;;94.00;74.75;;;;;;;;5094965;28;8836;-71
2022/01/24 11:20:31;;;;;;;;;97.25;80.50;;;;;;;;5080549;28;8966;-70
2022/01/24 11:22:59;;;;;;;;;85.25;64.00;;;;;;;;5094456;28;8914;-67
2022/01/24 11:25:26;;;;;;;;;92.00;72.75;;;;;;;;5094589;28;8813;-67
2022/01/24 11:27:51;;;;;;;;;93.00;75.75;;;;;;;;5095036;28;8798;-67
2022/01/24 11:30:20;;;;;;;;;99.33;86.67;;;;;;;;5094507;28;8825;-67
2022/01/24 11:32:51;;;;;;;;;102.50;93.25;;;;;;;;5094410;28;8852;-67
2022/01/24 11:35:30;;;;;;;;;83.25;66.50;;;;;;;;5094958;28;10533;-67
2022/01/24 11:37:56;;;;;;;;;92.75;73.75;;;;;;;;5083628;28;8840;-68
2022/01/24 11:40:24;;;;;;;;;89.67;70.00;;;;;;;;5094662;28;9742;-68
2022/01/24 11:42:51;;;;;;;;;93.50;73.50;;;;;;;;5080444;28;8782;-68
2022/01/24 11:45:18;;;;;;;;;87.00;69.50;;;;;;;;5094492;28;8821;-67
2022/01/24 11:47:45;;;;;;;;;90.00;73.33;;;;;;;;5089070;28;8903;-67
2022/01/24 11:50:31;;;;;;;;;74.50;56.50;;;;;;;;5086924;28;8918;-67
2022/01/24 11:52:57;;;;;;;;;65.00;51.75;;;;;;;;5094160;28;8808;-69
2022/01/24 11:55:34;;;;;;;;;49.50;40.00;;;;;;;;5094693;28;8802;-69
2022/01/24 11:58:06;;;;;;;;;35.25;27.50;;;;;;;;5089447;28;8778;-69
2022/01/24 12:00:44;;;;;;;;;58.50;47.25;;;;;;;;5094544;28;8794;-69
2022/01/24 12:03:23;;;;;;;;;81.00;64.25;;;;;;;;5082615;28;8806;-69
2022/01/24 12:05:53;;;;;;;;;82.50;66.25;;;;;;;;5092861;28;8842;-70
2022/01/24 12:08:35;;;;;;;;;80.75;62.25;;;;;;;;5094840;28;8790;-70
2022/01/24 12:11:22;;;;;;;;;88.75;69.50;;;;;;;;5093843;28;8920;-69
2022/01/24 12:13:49;;;;;;;;;80.00;61.50;;;;;;;;5094536;28;8794;-68
2022/01/24 12:16:15;;;;;;;;;79.25;63.00;;;;;;;;5080803;28;8889;-69
2022/01/24 12:18:42;;;;;;;;;74.25;58.50;;;;;;;;5084275;28;8812;-69
2022/01/24 12:21:13;;;;;;;;;79.00;61.00;;;;;;;;5091071;28;8860;-68
2022/01/24 12:23:43;;;;;;;;;82.75;65.25;;;;;;;;5093697;28;8813;-69
2022/01/24 12:26:11;;;;;;;;;88.75;69.75;;;;;;;;5093793;28;8805;-69
2022/01/24 12:28:39;;;;;;;;;76.75;59.75;;;;;;;;5094164;28;8894;-69
2022/01/24 12:31:06;;;;;;;;;77.25;60.25;;;;;;;;5093382;28;8902;-68
2022/01/24 12:33:38;;;;;;;;;85.00;64.50;;;;;;;;5094200;28;8901;-68
2022/01/24 12:36:05;;;;;;;;;78.50;62.00;;;;;;;;5093925;28;8782;-69
2022/01/24 12:38:41;;;;;;;;;77.25;58.50;;;;;;;;5093991;28;8806;-68
2022/01/24 12:41:17;;;;;;;;;75.00;58.75;;;;;;;;5093653;28;8901;-69
2022/01/24 12:46:37;;;;;;;;;81.50;64.50;;;;;;;;5072556;28;8985;-69
2022/01/24 12:49:05;;;;;;;;;80.00;63.33;;;;;;;;5094046;28;9577;-68
2022/01/24 12:51:31;;;;;;;;;85.50;67.25;;;;;;;;5093490;28;10526;-68
2022/01/24 12:53:57;;;;;;;;;80.25;65.00;;;;;;;;5093991;28;8832;-68
2022/01/24 12:56:26;;;;;;;;;66.00;54.00;;;;;;;;5089562;28;8821;-68
2022/01/24 12:58:52;;;;;;;;;73.75;59.00;;;;;;;;5093359;28;8861;-68
2022/01/24 13:01:23;;;;;;;;;64.75;53.00;;;;;;;;5093536;28;8817;-68
2022/01/24 13:03:50;;;;;;;;;50.50;44.50;;;;;;;;5081322;28;8781;-69
2022/01/24 13:06:16;;;;;;;;;63.25;50.75;;;;;;;;5087421;28;8798;-68
2022/01/24 13:09:01;;;;;;;;;63.50;51.50;;;;;;;;5093753;28;8859;-69
2022/01/24 13:11:28;;;;;;;;;78.50;59.25;;;;;;;;5092880;28;8963;-68
2022/01/24 13:14:12;;;;;;;;;70.00;56.75;;;;;;;;5088691;28;8828;-69
2022/01/24 13:22:43;;;;;;;;;69.25;56.75;;;;;;;;5092235;28;8895;-68
2022/01/24 13:25:09;;;;;;;;;68.50;55.25;;;;;;;;5092900;28;8806;-68
2022/01/24 13:27:36;;;;;;;;;62.50;51.25;;;;;;;;5091895;28;8743;-68
2022/01/24 13:30:04;;;;;;;;;76.00;61.67;;;;;;;;5092826;28;8800;-68
2022/01/24 13:32:49;;;;;;;;;88.00;73.60;;;;;;;;5099995;28;11552;-68
2022/01/24 13:35:16;;;;;;;;;88.80;73.00;;;;;;;;5096509;28;8847;-68
2022/01/24 13:37:42;;;;;;;;;88.60;73.00;;;;;;;;5083114;28;8994;-68
2022/01/24 13:40:07;;;;;;;;;80.67;65.33;;;;;;;;5096123;28;8819;-68
2022/01/24 13:42:33;;;;;;;;;78.60;64.00;;;;;;;;5096482;28;8904;-68
2022/01/24 13:44:59;;;;;;;;;94.00;81.60;;;;;;;;5094822;28;8927;-68
2022/01/24 13:47:25;;;;;;;;;92.33;83.33;;;;;;;;5096578;28;8837;-70
2022/01/24 13:49:50;;;;;;;;;95.25;84.50;;;;;;;;5095953;28;8848;-69
2022/01/24 13:52:18;;;;;;;;;102.20;98.40;;;;;;;;5092111;28;8813;-69
2022/01/24 13:54:43;;;;;;;;;91.60;77.80;;;;;;;;5096695;28;8818;-67
2022/01/24 13:57:10;;;;;;;;;101.00;97.67;;;;;;;;5095852;28;8900;-69
2022/01/24 13:59:35;;;;;;;;;91.50;79.75;;;;;;;;5094110;28;11577;-69
2022/01/24 14:02:19;;;;;;;;;89.25;73.25;;;;;;;;5088876;28;8910;-69
2022/01/24 14:04:54;;;;;;;;;91.50;80.00;;;;;;;;5092113;28;11595;-69
2022/01/24 14:07:23;;;;;;;;;87.80;73.20;;;;;;;;5099533;28;8802;-69
2022/01/24 14:09:52;;;;;;;;;82.20;66.20;;;;;;;;5092543;28;8830;-69
2022/01/24 14:12:23;;;;;;;;;86.80;75.00;;;;;;;;5094952;28;8840;-69
2022/01/24 14:15:01;;;;;;;;;87.40;72.80;;;;;;;;5098296;28;8847;-69
2022/01/24 14:20:11;;;;;;;;;88.60;74.40;;;;;;;;5083902;28;9605;-69
2022/01/24 14:22:36;;;;;;;;;81.00;65.00;;;;;;;;5097673;28;8790;-69
2022/01/24 14:25:02;;;;;;;;;86.25;70.25;;;;;;;;5095865;28;8836;-69
2022/01/24 14:27:35;;;;;;;;;90.75;77.50;;;;;;;;5092310;28;9619;-69
2022/01/24 14:30:22;;;;;;;;;87.40;72.00;;;;;;;;5090760;28;8860;-69
2022/01/24 14:33:02;;;;;;;;;89.60;76.60;;;;;;;;5076706;28;8907;-69
2022/01/24 14:35:30;;;;;;;;;80.75;64.50;;;;;;;;5091465;28;8887;-69
2022/01/24 14:37:56;;;;;;;;;80.75;63.50;;;;;;;;5100172;28;8863;-69
2022/01/24 14:40:31;;;;;;;;;76.50;61.75;;;;;;;;5092198;28;8954;-69
2022/01/24 14:44:53;;;;;;;;;82.20;67.60;;;;;;;;5094542;28;8863;-69
2022/01/24 14:45:41;;;;;;;;;83.00;65.20;;;;;;;;5089915;28;8801;-69
2022/01/24 14:48:07;;;;;;;;;86.50;68.50;;;;;;;;5095802;28;8924;-69
2022/01/24 14:50:32;;;;;;;;;90.75;77.75;;;;;;;;5095676;28;9494;-69
2022/01/24 14:53:03;;;;;;;;;96.00;87.00;;;;;;;;5080587;28;8842;-69
2022/01/24 14:55:28;;;;;;;;;96.00;82.60;;;;;;;;5086315;28;8809;-69
2022/01/24 14:57:54;;;;;;;;;90.75;80.25;;;;;;;;5083410;28;8818;-69
2022/01/24 15:00:19;;;;;;;;;90.67;76.00;;;;;;;;5090366;28;8814;-69
2022/01/24 15:02:45;;;;;;;;;78.25;63.50;;;;;;;;5080408;28;8830;-69
2022/01/24 15:05:11;;;;;;;;;82.00;67.00;;;;;;;;5078981;28;8812;-69
2022/01/24 15:07:37;;;;;;;;;86.00;69.20;;;;;;;;5091564;28;9109;-69
2022/01/24 15:10:03;;;;;;;;;79.75;63.25;;;;;;;;5090547;28;9145;-69
2022/01/24 15:12:29;;;;;;;;;84.00;71.25;;;;;;;;5086377;28;8921;-69
2022/01/24 15:14:54;;;;;;;;;83.25;66.50;;;;;;;;5093195;28;8809;-69
2022/01/24 15:25:36;;;;;;;;;71.25;59.00;;;;;;;;5091864;28;8812;-69
2022/01/24 15:28:03;;;;;;;;;70.25;58.75;;;;;;;;5088703;28;8786;-69
2022/01/24 15:30:28;;;;;;;;;59.75;51.00;;;;;;;;5093747;28;8785;-68
2022/01/24 15:32:53;;;;;;;;;67.25;57.00;;;;;;;;5095132;28;8782;-69
2022/01/24 15:35:19;;;;;;;;;57.33;49.67;;;;;;;;5091354;28;8828;-68
2022/01/24 15:37:45;;;;;;;;;71.75;57.00;;;;;;;;5093287;28;12298;-68
2022/01/24 15:40:11;;;;;;;;;65.75;53.75;;;;;;;;5089196;28;9048;-68
2022/01/24 15:47:38;;;;;;;;;60.75;50.00;;;;;;;;5094322;28;11553;-69
2022/01/24 15:50:09;;;;;;;;;70.75;57.50;;;;;;;;5093898;28;8821;-69
2022/01/24 15:52:34;;;;;;;;;80.75;65.75;;;;;;;;5094859;28;8794;-68
2022/01/24 15:55:06;;;;;;;;;65.75;53.25;;;;;;;;5093776;28;8838;-68
2022/01/24 15:57:40;;;;;;;;;71.50;57.75;;;;;;;;5094304;28;8840;-69
2022/01/24 16:00:07;;;;;;;;;77.00;63.00;;;;;;;;5092811;28;8814;-69
2022/01/24 16:02:32;;;;;;;;;80.50;65.75;;;;;;;;5094699;28;8847;-69
2022/01/24 16:04:58;;;;;;;;;60.50;51.25;;;;;;;;5094390;28;8924;-68
2022/01/24 16:07:24;;;;;;;;;73.00;58.75;;;;;;;;5094246;28;8848;-68
2022/01/24 16:09:49;;;;;;;;;75.00;59.75;;;;;;;;5092716;28;9510;-69
2022/01/24 16:12:14;;;;;;;;;69.33;55.00;;;;;;;;5094320;28;8810;-69
2022/01/24 16:14:40;;;;;;;;;69.00;53.67;;;;;;;;5087124;28;9050;-68
2022/01/24 16:17:05;;;;;;;;;78.33;63.00;;;;;;;;5086695;28;8838;-69
2022/01/24 16:19:34;;;;;;;;;77.67;60.33;;;;;;;;5078672;28;8867;-68
2022/01/24 16:22:14;;;;;;;;;78.75;64.25;;;;;;;;5080903;28;8906;-69
2022/01/24 16:27:10;;;;;;;;;79.00;62.50;;;;;;;;5093748;28;9622;-69
2022/01/24 16:29:36;;;;;;;;;76.33;62.67;;;;;;;;5094036;28;8789;-68
2022/01/24 16:32:01;;;;;;;;;92.75;75.50;;;;;;;;5094203;28;11492;-68
2022/01/24 16:34:26;;;;;;;;;80.33;63.33;;;;;;;;5092416;28;8821;-68
2022/01/24 16:36:52;;;;;;;;;76.67;63.00;;;;;;;;5093476;28;11618;-68
2022/01/24 16:39:19;;;;;;;;;83.67;64.00;;;;;;;;5093672;28;8809;-68
2022/01/24 16:41:57;;;;;;;;;74.00;61.25;;;;;;;;5094202;28;9719;-70
2022/01/24 16:44:39;;;;;;;;;80.00;64.75;;;;;;;;5087771;28;8892;-70